Terminal Aerodrome Forecast
Issued by NWS Tampa Bay Area, FL

Home | Current Version | Previous Version | Text Only | Print | Product List | Glossary On
Versions: 1 2 3 4 5 6 7 8 9 10 11 12 13 14 15 16 17 18 19 20 21 22 23 24
000
FTUS42 KTBW 022300
TAFTPA
TAF
KTPA 022335Z 0300/0324 34005KT P6SM SCT040 SCT250
     FM030200 VRB03KT P6SM SCT035 BKN250
     FM031600 18005KT P6SM FEW035 SCT250
     FM031900 26007KT P6SM VCTS SCT050CB SCT120 BKN250=

USA.gov is the U.S. government's official web portal to all federal, state and local government web resources and services.